createdAt,value
2018-12-20T00:02:27.737Z,5.08
2018-12-20T00:07:31.070Z,5.07
2018-12-20T00:12:34.384Z,5.25
2018-12-20T00:17:43.109Z,5.14
2018-12-20T00:22:46.345Z,5.15
2018-12-20T00:27:49.658Z,5.18
2018-12-20T00:32:52.976Z,5.29
2018-12-20T00:37:56.302Z,5.16
2018-12-20T00:42:59.621Z,5.14
2018-12-20T00:48:02.844Z,5.12
2018-12-20T00:53:06.140Z,5.28
2018-12-20T00:58:09.363Z,5.27
2018-12-20T01:03:12.846Z,5.16
2018-12-20T01:08:16.038Z,5.06
2018-12-20T01:13:19.188Z,5.16
2018-12-20T01:18:22.365Z,5.21
2018-12-20T01:23:25.667Z,5.30
2018-12-20T01:28:29.098Z,5.22
2018-12-20T01:33:32.388Z,5.16
2018-12-20T01:38:35.882Z,5.13
2018-12-20T01:43:39.219Z,5.09
2018-12-20T01:48:42.645Z,5.28
2018-12-20T01:53:45.846Z,5.26
2018-12-20T01:58:49.008Z,5.32
2018-12-20T02:03:52.158Z,5.33
2018-12-20T02:08:55.357Z,5.04
2018-12-20T02:13:58.518Z,5.12
2018-12-20T02:19:01.993Z,5.20
2018-12-20T02:24:05.501Z,5.21
2018-12-20T02:29:08.732Z,5.26
2018-12-20T02:34:11.991Z,5.25
2018-12-20T02:39:15.355Z,5.17
2018-12-20T02:44:18.592Z,5.07
2018-12-20T02:49:22.018Z,5.04
2018-12-20T02:54:25.335Z,5.11
2018-12-20T02:59:28.726Z,5.01
2018-12-20T03:04:32.094Z,5.28
2018-12-20T03:09:35.365Z,5.28
2018-12-20T03:14:38.738Z,5.26
2018-12-20T03:19:42.096Z,5.36
2018-12-20T03:24:45.579Z,5.25
2018-12-20T03:29:49.080Z,5.28
2018-12-20T03:34:52.375Z,5.19
2018-12-20T03:39:56.843Z,5.19
2018-12-20T03:45:00.224Z,5.02
2018-12-20T03:50:03.757Z,5.17
2018-12-20T03:55:07.170Z,4.99
2018-12-20T04:00:10.425Z,5.01
2018-12-20T04:05:13.863Z,4.93
2018-12-20T04:10:17.336Z,4.94
2018-12-20T04:15:20.823Z,5.16
2018-12-20T04:20:24.004Z,5.13
2018-12-20T04:25:27.428Z,4.88
2018-12-20T04:30:30.784Z,4.90
2018-12-20T04:35:34.017Z,4.94
2018-12-20T04:40:37.348Z,4.80
2018-12-20T04:45:46.654Z,5.03
2018-12-20T04:50:45.947Z,4.90
2018-12-20T04:55:49.178Z,5.07
2018-12-20T05:00:52.453Z,5.02
2018-12-20T05:05:55.822Z,4.95
2018-12-20T05:10:59.339Z,5.12
2018-12-20T05:16:02.589Z,5.14
2018-12-20T05:21:05.789Z,5.16
2018-12-20T05:26:09.037Z,5.20
2018-12-20T05:31:12.298Z,5.27
2018-12-20T05:36:15.874Z,5.05
2018-12-20T05:41:19.201Z,5.19
2018-12-20T05:46:22.410Z,5.05
2018-12-20T05:51:25.823Z,5.27
2018-12-20T05:56:29.040Z,5.08
2018-12-20T06:01:32.183Z,5.17
2018-12-20T06:06:35.397Z,5.19
2018-12-20T06:11:38.749Z,5.11
2018-12-20T06:16:41.944Z,5.07
2018-12-20T06:21:45.181Z,5.19
2018-12-20T06:26:48.344Z,5.15
2018-12-20T06:31:51.562Z,5.08
2018-12-20T06:36:54.753Z,5.29
2018-12-20T06:41:57.965Z,5.33
2018-12-20T06:47:01.125Z,5.07
2018-12-20T06:52:04.313Z,5.14
2018-12-20T06:57:07.468Z,5.17
2018-12-20T07:02:10.625Z,5.21
2018-12-20T07:07:13.777Z,5.11
2018-12-20T07:12:17.067Z,4.95
2018-12-20T07:17:20.304Z,4.95
2018-12-20T07:22:23.519Z,5.03
2018-12-20T07:27:26.668Z,5.08
2018-12-20T07:32:29.834Z,5.05
2018-12-20T07:37:33.012Z,5.01
2018-12-20T07:42:36.192Z,5.05
2018-12-20T07:47:39.352Z,5.06
2018-12-20T07:52:42.504Z,5.14
2018-12-20T07:57:45.895Z,5.18
2018-12-20T08:02:49.112Z,5.24
2018-12-20T08:07:52.290Z,5.26
2018-12-20T08:12:55.513Z,5.18
2018-12-20T08:17:58.823Z,5.36
2018-12-20T08:23:02.009Z,5.20
2018-12-20T08:28:05.210Z,5.31
2018-12-20T08:33:08.401Z,5.42
2018-12-20T08:38:11.589Z,5.40
2018-12-20T08:43:14.801Z,5.34
2018-12-20T08:48:17.989Z,5.56
2018-12-20T08:53:21.218Z,5.67
2018-12-20T08:58:24.419Z,5.60
2018-12-20T09:03:27.592Z,5.67
2018-12-20T09:08:30.869Z,5.62
2018-12-20T09:13:34.092Z,5.64
2018-12-20T09:18:37.428Z,5.67
2018-12-20T09:23:40.637Z,5.68
2018-12-20T09:28:43.836Z,5.75
2018-12-20T09:33:47.024Z,5.85
2018-12-20T09:38:50.238Z,5.85
2018-12-20T09:43:53.410Z,6.01
2018-12-20T09:48:57.282Z,6.28
2018-12-20T09:54:00.527Z,6.54
2018-12-20T09:59:03.788Z,6.26
2018-12-20T10:04:07.002Z,6.47
2018-12-20T10:09:10.165Z,6.53
2018-12-20T10:14:13.378Z,6.69
2018-12-20T10:19:16.600Z,6.72
2018-12-20T10:24:19.828Z,6.63
2018-12-20T10:29:23.017Z,7.03
2018-12-20T10:34:26.238Z,7.37
2018-12-20T10:39:29.454Z,7.58
2018-12-20T10:44:32.742Z,7.57
2018-12-20T10:49:36.073Z,7.98
2018-12-20T10:54:39.254Z,8.47
2018-12-20T10:59:42.429Z,8.73
2018-12-20T11:04:50.990Z,8.31
2018-12-20T11:10:28.796Z,8.03
2018-12-20T11:15:31.956Z,7.81
2018-12-20T11:20:35.148Z,7.65
2018-12-20T11:25:38.398Z,7.43
2018-12-20T11:30:41.572Z,7.58
2018-12-20T11:35:44.724Z,7.59
2018-12-20T11:40:47.888Z,7.80
2018-12-20T11:45:51.041Z,7.92
2018-12-20T11:50:54.367Z,7.66
2018-12-20T11:55:57.529Z,7.51
2018-12-20T12:01:00.789Z,7.58
2018-12-20T12:06:04.669Z,7.64
2018-12-20T12:11:07.964Z,8.03
2018-12-20T12:16:11.184Z,8.05
2018-12-20T12:21:14.400Z,8.33
2018-12-20T12:26:17.560Z,8.28
2018-12-20T12:31:20.729Z,8.51
2018-12-20T12:36:23.892Z,8.33
2018-12-20T12:41:27.137Z,7.91
2018-12-20T12:46:30.307Z,7.95
2018-12-20T12:51:33.485Z,7.91
2018-12-20T12:56:36.646Z,7.79
2018-12-20T13:01:39.865Z,7.66
2018-12-20T13:06:43.085Z,7.67
2018-12-20T13:11:46.249Z,7.56
2018-12-20T13:16:49.436Z,7.49
2018-12-20T13:21:52.608Z,7.52
2018-12-20T13:26:56.149Z,7.61
2018-12-20T13:31:59.362Z,7.57
2018-12-20T13:37:02.534Z,7.60
2018-12-20T13:42:05.810Z,7.63
2018-12-20T13:47:09.098Z,7.60
2018-12-20T13:52:12.335Z,7.66
2018-12-20T13:57:15.606Z,7.57
2018-12-20T14:02:18.821Z,7.65
2018-12-20T14:07:22.022Z,7.70
2018-12-20T14:12:25.265Z,7.70
2018-12-20T14:17:28.479Z,7.77
2018-12-20T14:22:31.649Z,7.70
2018-12-20T14:27:34.863Z,7.67
2018-12-20T14:32:38.024Z,7.63
2018-12-20T14:37:41.279Z,7.55
2018-12-20T14:42:44.530Z,7.53
2018-12-20T14:47:47.805Z,7.55
2018-12-20T14:52:51.081Z,7.56
2018-12-20T14:57:54.268Z,7.53
2018-12-20T15:02:57.612Z,7.46
2018-12-20T15:08:00.805Z,7.49
2018-12-20T15:13:04.146Z,7.59
2018-12-20T15:18:07.406Z,7.54
2018-12-20T15:23:11.446Z,7.57
2018-12-20T15:28:14.726Z,7.55
2018-12-20T15:33:18.219Z,7.50
2018-12-20T15:38:21.833Z,7.56
2018-12-20T15:43:25.103Z,7.50
2018-12-20T15:48:28.269Z,7.55
2018-12-20T15:53:31.460Z,7.45
2018-12-20T15:58:34.617Z,7.45
2018-12-20T16:03:37.824Z,7.50
2018-12-20T16:08:41.051Z,7.47
2018-12-20T16:13:44.250Z,7.52
2018-12-20T16:18:47.411Z,7.45
2018-12-20T16:23:50.609Z,7.38
2018-12-20T16:28:53.809Z,7.43
2018-12-20T16:33:57.019Z,7.39
2018-12-20T16:39:00.239Z,7.29
2018-12-20T16:44:03.401Z,7.35
2018-12-20T16:49:13.545Z,7.37
2018-12-20T16:54:11.768Z,7.24
2018-12-20T16:59:14.929Z,7.28
2018-12-20T17:04:18.189Z,7.18
2018-12-20T17:09:21.437Z,7.30
2018-12-20T17:14:24.613Z,7.27
2018-12-20T17:19:27.832Z,7.33
2018-12-20T17:24:31.019Z,7.26
2018-12-20T17:29:34.229Z,7.14
2018-12-20T17:34:37.410Z,7.15
2018-12-20T17:39:40.570Z,7.10
2018-12-20T17:44:43.749Z,7.22
2018-12-20T17:49:46.953Z,7.19
2018-12-20T17:54:50.157Z,7.08
2018-12-20T17:59:53.415Z,7.21
2018-12-20T18:04:56.654Z,7.17
2018-12-20T18:09:59.888Z,7.23
2018-12-20T18:15:03.387Z,7.26
2018-12-20T18:20:09.472Z,7.17
2018-12-20T18:25:13.998Z,7.12
2018-12-20T18:30:18.652Z,7.18
2018-12-20T18:35:23.096Z,7.16
2018-12-20T18:40:27.709Z,7.10
2018-12-20T18:45:32.328Z,7.14
2018-12-20T18:50:35.752Z,7.12
2018-12-20T18:55:39.144Z,7.18
2018-12-20T19:00:42.382Z,7.13
2018-12-20T19:05:45.553Z,7.20
2018-12-20T19:10:48.740Z,7.21
2018-12-20T19:15:51.907Z,7.10
2018-12-20T19:20:55.071Z,7.16
2018-12-20T19:25:58.255Z,7.19
2018-12-20T19:31:02.384Z,7.21
2018-12-20T19:36:06.287Z,7.22
2018-12-20T19:41:10.101Z,7.19
2018-12-20T19:46:15.604Z,7.22
2018-12-20T19:51:20.201Z,7.27
2018-12-20T19:56:25.012Z,7.31
2018-12-20T20:01:29.693Z,7.29
2018-12-20T20:06:34.338Z,7.35
2018-12-20T20:11:38.996Z,7.32
2018-12-20T20:16:50.599Z,7.39
2018-12-20T20:21:50.144Z,7.42
2018-12-20T20:26:54.846Z,7.33
2018-12-20T20:31:58.081Z,7.40
2018-12-20T20:37:01.274Z,7.40
2018-12-20T20:42:04.509Z,7.45
2018-12-20T20:47:08.511Z,7.37
2018-12-20T20:52:11.776Z,7.44
2018-12-20T20:57:14.961Z,7.53
2018-12-20T21:02:18.275Z,7.33
2018-12-20T21:07:21.889Z,7.33
2018-12-20T21:12:25.169Z,7.43
2018-12-20T21:17:28.430Z,7.46
2018-12-20T21:22:31.718Z,7.53
2018-12-20T21:27:34.957Z,7.46
2018-12-20T21:32:38.258Z,7.40
2018-12-20T21:37:41.522Z,7.32
2018-12-20T21:42:44.722Z,7.36
2018-12-20T21:47:47.904Z,7.28
2018-12-20T21:52:51.182Z,7.33
2018-12-20T21:57:54.340Z,7.30
2018-12-20T22:02:57.515Z,7.39
2018-12-20T22:08:00.686Z,7.30
2018-12-20T22:13:03.917Z,7.15
2018-12-20T22:25:49.236Z,7.20
2018-12-20T22:30:52.516Z,7.29
2018-12-20T22:35:55.785Z,7.26
2018-12-20T22:40:59.014Z,7.22
2018-12-20T22:46:02.269Z,7.25
2018-12-20T22:51:05.495Z,7.30
2018-12-20T22:56:08.770Z,7.31
2018-12-20T23:01:11.961Z,7.27
2018-12-20T23:06:15.149Z,7.33
2018-12-20T23:11:18.330Z,7.34
2018-12-20T23:16:21.805Z,7.35
2018-12-20T23:21:25.025Z,7.40
2018-12-20T23:26:28.249Z,7.34
2018-12-20T23:31:31.513Z,7.36
2018-12-20T23:36:34.680Z,7.28
2018-12-20T23:41:37.969Z,7.23
2018-12-20T23:46:41.190Z,7.22
2018-12-20T23:51:45.419Z,7.15
2018-12-20T23:56:48.899Z,7.14
